createdAt,value
2018-01-02T00:00:16.708Z,4.00
2018-01-02T00:02:44.730Z,4.33
2018-01-02T00:05:12.606Z,4.10
2018-01-02T00:07:40.576Z,3.80
2018-01-02T00:10:08.501Z,4.43
2018-01-02T00:12:36.448Z,4.47
2018-01-02T00:15:04.283Z,3.53
2018-01-02T00:17:32.300Z,3.80
2018-01-02T00:20:00.526Z,4.30
2018-01-02T00:22:28.395Z,3.83
2018-01-02T00:24:56.291Z,3.67
2018-01-02T00:29:58.921Z,3.20
2018-01-02T00:32:26.881Z,3.87
2018-01-02T00:34:54.751Z,3.67
2018-01-02T00:37:22.711Z,3.27
2018-01-02T00:39:50.624Z,4.00
2018-01-02T00:42:18.527Z,3.50
2018-01-02T00:44:46.625Z,3.60
2018-01-02T00:47:14.799Z,4.00
2018-01-02T00:49:42.892Z,3.30
2018-01-02T00:52:12.415Z,3.73
2018-01-02T00:54:43.350Z,3.03
2018-01-02T00:57:11.368Z,2.73
2018-01-02T00:59:39.369Z,3.60
2018-01-02T01:02:07.342Z,3.77
2018-01-02T01:04:35.489Z,3.43
2018-01-02T01:07:03.461Z,3.40
2018-01-02T01:09:31.381Z,3.73
2018-01-02T01:12:08.668Z,3.57
2018-01-02T01:14:41.343Z,3.73
2018-01-02T01:17:09.233Z,4.30
2018-01-02T01:19:37.269Z,4.10
2018-01-02T01:22:05.178Z,2.90
2018-01-02T01:24:33.058Z,3.43
2018-01-02T01:27:00.937Z,3.73
2018-01-02T01:29:28.839Z,3.93
2018-01-02T01:31:56.767Z,3.53
2018-01-02T01:34:24.721Z,3.93
2018-01-02T01:36:52.612Z,3.07
2018-01-02T01:39:20.531Z,3.70
2018-01-02T01:41:48.440Z,3.93
2018-01-02T01:44:16.331Z,3.40
2018-01-02T01:46:44.268Z,3.77
2018-01-02T01:49:12.143Z,3.57
2018-01-02T01:51:40.065Z,5.27
2018-01-02T01:54:08.192Z,3.27
2018-01-02T01:56:36.152Z,3.83
2018-01-02T01:59:04.060Z,5.00
2018-01-02T02:01:31.977Z,3.93
2018-01-02T02:03:59.877Z,4.67
2018-01-02T02:06:27.857Z,3.57
2018-01-02T02:08:55.761Z,3.73
2018-01-02T02:11:23.701Z,2.97
2018-01-02T02:13:51.626Z,2.50
2018-01-02T02:16:19.604Z,3.70
2018-01-02T02:18:47.599Z,3.20
2018-01-02T02:21:15.506Z,3.10
2018-01-02T02:23:43.396Z,3.37
2018-01-02T02:26:11.387Z,3.13
2018-01-02T02:28:40.084Z,3.77
2018-01-02T02:31:08.036Z,3.10
2018-01-02T02:33:35.896Z,3.50
2018-01-02T02:36:03.804Z,4.10
2018-01-02T02:38:31.780Z,3.57
2018-01-02T02:41:06.650Z,3.67
2018-01-02T02:43:34.576Z,3.50
2018-01-02T02:46:02.439Z,4.00
2018-01-02T02:48:30.339Z,4.47
2018-01-02T02:50:58.323Z,5.17
2018-01-02T02:53:26.304Z,5.40
2018-01-02T02:55:54.197Z,5.97
2018-01-02T02:58:22.084Z,5.40
2018-01-02T03:00:49.951Z,4.83
2018-01-02T03:03:17.908Z,5.00
2018-01-02T03:05:45.845Z,5.40
2018-01-02T03:08:13.740Z,4.93
2018-01-02T03:10:41.603Z,4.70
2018-01-02T03:13:09.579Z,4.97
2018-01-02T03:15:37.615Z,4.40
2018-01-02T03:18:05.501Z,5.47
2018-01-02T03:20:33.406Z,4.93
2018-01-02T03:23:01.383Z,5.13
2018-01-02T03:25:29.274Z,5.60
2018-01-02T03:27:57.163Z,5.27
2018-01-02T03:30:25.099Z,8.43
2018-01-02T03:32:52.988Z,5.73
2018-01-02T03:35:20.875Z,9.90
2018-01-02T03:37:48.802Z,11.90
2018-01-02T03:40:16.680Z,9.63
2018-01-02T03:42:44.580Z,12.60
2018-01-02T03:45:12.478Z,11.53
2018-01-02T03:47:40.335Z,14.00
2018-01-02T03:50:08.338Z,8.23
2018-01-02T03:52:36.249Z,5.80
2018-01-02T03:55:04.120Z,7.30
2018-01-02T03:57:32.018Z,5.20
2018-01-02T03:59:59.900Z,6.00
2018-01-02T04:02:27.774Z,6.00
2018-01-02T04:04:55.711Z,6.13
2018-01-02T04:07:23.604Z,6.10
2018-01-02T04:09:51.481Z,5.80
2018-01-02T04:12:19.412Z,5.30
2018-01-02T04:14:47.317Z,6.80
2018-01-02T04:17:15.364Z,5.17
2018-01-02T04:19:43.302Z,6.67
2018-01-02T04:22:11.155Z,6.40
2018-01-02T04:24:39.033Z,6.30
2018-01-02T04:27:06.952Z,6.90
2018-01-02T04:29:34.871Z,6.47
2018-01-02T04:32:02.991Z,6.73
2018-01-02T04:34:30.859Z,6.70
2018-01-02T04:36:58.728Z,6.20
2018-01-02T04:39:26.699Z,6.80
2018-01-02T04:41:54.627Z,7.70
2018-01-02T04:44:22.501Z,9.00
2018-01-02T04:46:50.434Z,9.10
2018-01-02T04:49:18.355Z,8.67
2018-01-02T04:51:46.272Z,10.90
2018-01-02T04:54:14.247Z,9.83
2018-01-02T04:56:42.177Z,9.67
2018-01-02T04:59:10.052Z,9.50
2018-01-02T05:01:37.917Z,9.90
2018-01-02T05:04:05.827Z,9.80
2018-01-02T05:06:33.764Z,10.27
2018-01-02T05:09:01.672Z,9.83
2018-01-02T05:11:29.704Z,8.90
2018-01-02T05:13:57.607Z,9.67
2018-01-02T05:16:25.466Z,8.47
2018-01-02T05:18:53.373Z,8.40
2018-01-02T05:21:21.228Z,7.80
2018-01-02T05:23:49.101Z,8.57
2018-01-02T05:26:16.996Z,8.70
2018-01-02T05:28:44.886Z,9.40
2018-01-02T05:31:12.737Z,7.73
2018-01-02T05:33:40.659Z,8.70
2018-01-02T05:36:08.505Z,8.40
2018-01-02T05:38:36.380Z,10.57
2018-01-02T05:41:04.281Z,10.00
2018-01-02T05:43:32.159Z,10.00
2018-01-02T05:46:00.035Z,9.17
2018-01-02T05:48:27.926Z,8.77
2018-01-02T05:50:55.806Z,10.67
2018-01-02T05:53:23.701Z,11.10
2018-01-02T05:55:51.654Z,12.23
2018-01-02T05:58:19.540Z,11.53
2018-01-02T06:00:47.429Z,11.80
2018-01-02T06:03:15.340Z,12.70
2018-01-02T06:05:43.194Z,14.20
2018-01-02T06:08:11.068Z,13.40
2018-01-02T06:10:38.940Z,12.80
2018-01-02T06:13:06.840Z,12.57
2018-01-02T06:15:34.742Z,13.07
2018-01-02T06:18:02.639Z,13.30
2018-01-02T06:20:30.531Z,13.00
2018-01-02T06:22:58.409Z,13.40
2018-01-02T06:25:26.308Z,14.27
2018-01-02T06:27:54.173Z,13.80
2018-01-02T06:30:22.081Z,15.50
2018-01-02T06:32:49.960Z,14.30
2018-01-02T06:35:17.837Z,15.50
2018-01-02T06:37:45.804Z,14.60
2018-01-02T06:40:13.681Z,14.93
2018-01-02T06:42:41.558Z,15.20
2018-01-02T06:45:09.422Z,16.43
2018-01-02T06:47:37.315Z,14.67
2018-01-02T06:50:05.186Z,14.10
2018-01-02T06:52:33.103Z,15.23
2018-01-02T06:55:00.994Z,12.33
2018-01-02T06:57:28.896Z,11.47
2018-01-02T06:59:56.786Z,10.27
2018-01-02T07:02:24.701Z,12.00
2018-01-02T07:04:52.590Z,13.67
2018-01-02T07:07:20.497Z,13.47
2018-01-02T07:09:48.437Z,11.17
2018-01-02T07:12:16.295Z,10.20
2018-01-02T07:14:44.166Z,10.13
2018-01-02T07:17:12.171Z,7.23
2018-01-02T07:19:40.055Z,6.73
2018-01-02T07:22:07.906Z,5.40
2018-01-02T07:24:35.797Z,6.63
2018-01-02T07:27:03.666Z,4.80
2018-01-02T07:29:31.540Z,4.70
2018-01-02T07:31:59.451Z,6.10
2018-01-02T07:34:27.383Z,7.60
2018-01-02T07:36:55.289Z,7.50
2018-01-02T07:39:23.164Z,7.53
2018-01-02T07:41:51.134Z,8.10
2018-01-02T07:44:19.155Z,8.40
2018-01-02T07:46:47.112Z,6.13
2018-01-02T07:49:14.951Z,7.20
2018-01-02T07:51:42.860Z,9.50
2018-01-02T07:54:10.736Z,9.80
2018-01-02T07:56:38.614Z,9.90
2018-01-02T07:59:06.572Z,9.30
2018-01-02T08:01:34.575Z,8.37
2018-01-02T08:04:02.787Z,8.27
2018-01-02T08:06:30.662Z,9.33
2018-01-02T08:08:58.571Z,7.13
2018-01-02T08:11:26.556Z,6.83
2018-01-02T08:13:54.420Z,6.67
2018-01-02T08:16:22.961Z,4.70
2018-01-02T08:18:50.852Z,4.67
2018-01-02T08:21:18.729Z,4.80
2018-01-02T08:23:46.674Z,5.33
2018-01-02T08:26:14.706Z,5.30
2018-01-02T08:28:42.577Z,4.77
2018-01-02T08:31:10.468Z,6.03
2018-01-02T08:33:38.335Z,6.47
2018-01-02T08:36:06.212Z,4.90
2018-01-02T08:38:34.123Z,6.30
2018-01-02T08:41:02.036Z,6.33
2018-01-02T08:43:29.884Z,6.40
2018-01-02T08:45:57.801Z,8.40
2018-01-02T08:48:25.828Z,7.20
2018-01-02T08:50:53.716Z,9.10
2018-01-02T08:53:21.591Z,12.33
2018-01-02T08:55:49.456Z,9.20
2018-01-02T08:58:17.320Z,6.63
2018-01-02T09:00:45.216Z,8.70
2018-01-02T09:03:13.071Z,7.40
2018-01-02T09:05:41.021Z,7.60
2018-01-02T09:08:09.033Z,6.90
2018-01-02T09:10:36.891Z,6.97
2018-01-02T09:13:10.896Z,9.13
2018-01-02T09:15:38.788Z,13.23
2018-01-02T09:18:06.693Z,11.30
2018-01-02T09:20:34.717Z,10.23
2018-01-02T09:23:02.615Z,12.43
2018-01-02T09:25:30.543Z,9.73
2018-01-02T09:27:58.450Z,10.13
2018-01-02T09:30:26.319Z,11.67
2018-01-02T09:32:54.229Z,10.70
2018-01-02T09:35:22.325Z,9.53
2018-01-02T09:37:50.216Z,11.27
2018-01-02T09:40:18.058Z,11.00
2018-01-02T09:42:45.998Z,9.93
2018-01-02T09:45:13.915Z,9.87
2018-01-02T09:47:41.782Z,11.00
2018-01-02T09:50:09.873Z,10.30
2018-01-02T09:52:37.823Z,12.20
2018-01-02T09:55:05.696Z,9.30
2018-01-02T09:57:33.582Z,9.30
2018-01-02T10:00:01.576Z,9.40
2018-01-02T10:02:29.440Z,7.77
2018-01-02T10:04:57.378Z,8.43
2018-01-02T10:07:25.328Z,8.43
2018-01-02T10:09:53.317Z,8.10
2018-01-02T10:12:21.231Z,8.67
2018-01-02T10:14:49.109Z,7.93
2018-01-02T10:17:17.011Z,8.50
2018-01-02T10:19:44.988Z,9.90
2018-01-02T10:22:12.907Z,9.93
2018-01-02T10:24:40.818Z,10.20
2018-01-02T10:27:08.731Z,10.83
2018-01-02T10:29:36.626Z,10.13
2018-01-02T10:32:04.640Z,11.07
2018-01-02T10:34:32.564Z,11.10
2018-01-02T10:37:01.358Z,12.40
2018-01-02T10:39:29.252Z,12.83
2018-01-02T10:41:57.224Z,13.53
2018-01-02T10:44:25.125Z,14.00
2018-01-02T10:46:53.052Z,13.57
2018-01-02T10:49:21.026Z,14.13
2018-01-02T10:51:48.894Z,13.50
2018-01-02T10:54:16.848Z,14.30
2018-01-02T10:56:44.737Z,14.80
2018-01-02T10:59:12.668Z,13.53
2018-01-02T11:01:40.566Z,13.33
2018-01-02T11:04:08.536Z,14.27
2018-01-02T11:06:36.453Z,11.87
2018-01-02T11:09:04.357Z,12.73
2018-01-02T11:11:32.258Z,12.67
2018-01-02T11:14:00.159Z,13.97
2018-01-02T11:16:28.736Z,13.70
2018-01-02T11:18:56.619Z,13.50
2018-01-02T11:21:24.555Z,14.80
2018-01-02T11:23:52.502Z,14.50
2018-01-02T11:26:20.421Z,13.90
2018-01-02T11:28:48.310Z,15.53
2018-01-02T11:31:16.189Z,14.53
2018-01-02T11:33:44.095Z,15.57
2018-01-02T11:36:11.955Z,16.03
2018-01-02T11:38:39.952Z,13.80
2018-01-02T11:41:07.911Z,12.53
2018-01-02T11:43:35.804Z,13.43
2018-01-02T11:46:03.643Z,11.93
2018-01-02T11:48:31.582Z,11.27
2018-01-02T11:50:59.544Z,10.57
2018-01-02T11:53:27.449Z,11.80
2018-01-02T11:55:55.344Z,11.80
2018-01-02T11:58:23.179Z,11.20
2018-01-02T12:00:51.175Z,12.00
2018-01-02T12:03:19.891Z,12.87
2018-01-02T12:05:47.791Z,12.30
2018-01-02T12:08:16.710Z,11.77
2018-01-02T12:10:44.603Z,13.57
2018-01-02T12:13:12.461Z,13.57
2018-01-02T12:15:40.389Z,14.90
2018-01-02T12:18:08.365Z,14.60
2018-01-02T12:20:36.224Z,14.40
2018-01-02T12:23:04.158Z,14.87
2018-01-02T12:25:32.100Z,14.90
2018-01-02T12:28:00.079Z,13.43
2018-01-02T12:30:28.005Z,13.37
2018-01-02T12:32:55.867Z,14.70
2018-01-02T12:35:23.739Z,13.63
2018-01-02T12:37:53.720Z,12.80
2018-01-02T12:40:21.590Z,14.07
2018-01-02T12:42:49.520Z,13.10
2018-01-02T12:45:17.430Z,13.80
2018-01-02T12:47:45.271Z,12.87
2018-01-02T12:50:13.157Z,13.23
2018-01-02T12:52:41.431Z,12.53
2018-01-02T12:55:09.369Z,12.17
2018-01-02T12:57:37.209Z,11.90
2018-01-02T13:00:05.154Z,12.33
2018-01-02T13:02:33.102Z,12.03
2018-01-02T13:05:01.020Z,11.47
2018-01-02T13:07:28.910Z,11.33
2018-01-02T13:09:56.797Z,11.10
2018-01-02T13:12:24.665Z,12.07
2018-01-02T13:14:52.524Z,12.10
2018-01-02T13:17:20.395Z,10.43
2018-01-02T13:19:48.368Z,10.40
2018-01-02T13:22:16.236Z,9.30
2018-01-02T13:24:44.152Z,9.47
2018-01-02T13:27:12.032Z,9.03
2018-01-02T13:29:39.910Z,7.90
2018-01-02T13:32:08.026Z,8.73
2018-01-02T13:34:35.895Z,7.93
2018-01-02T13:37:03.792Z,8.30
2018-01-02T13:39:31.909Z,8.67
2018-01-02T13:41:59.830Z,9.53
2018-01-02T13:44:27.730Z,8.93
2018-01-02T13:46:55.693Z,9.20
2018-01-02T13:49:23.587Z,10.70
2018-01-02T13:51:52.471Z,9.37
2018-01-02T13:54:20.349Z,8.27
2018-01-02T13:56:48.239Z,9.10
2018-01-02T13:59:16.122Z,10.57
2018-01-02T14:01:44.034Z,10.97
2018-01-02T14:04:12.858Z,9.37
2018-01-02T14:06:40.723Z,9.70
2018-01-02T14:09:08.762Z,10.73
2018-01-02T14:11:36.676Z,11.00
2018-01-02T14:14:04.560Z,10.60
2018-01-02T14:16:32.545Z,10.00
2018-01-02T14:19:00.504Z,8.40
2018-01-02T14:21:28.396Z,9.80
2018-01-02T14:23:56.495Z,10.50
2018-01-02T14:26:24.358Z,8.43
2018-01-02T14:28:52.280Z,9.30
2018-01-02T14:31:20.205Z,8.00
2018-01-02T14:33:48.169Z,8.67
2018-01-02T14:36:16.052Z,9.13
2018-01-02T14:38:44.004Z,8.63
2018-01-02T14:41:11.864Z,8.30
2018-01-02T14:43:39.731Z,8.27
2018-01-02T14:46:07.679Z,6.63
2018-01-02T14:48:35.636Z,8.97
2018-01-02T14:51:03.614Z,6.70
2018-01-02T14:53:31.578Z,8.33
2018-01-02T14:55:59.469Z,10.77
2018-01-02T14:58:27.359Z,7.17
2018-01-02T15:00:55.306Z,9.87
2018-01-02T15:03:23.256Z,11.67
2018-01-02T15:05:51.170Z,8.27
2018-01-02T15:08:19.216Z,7.17
2018-01-02T15:10:47.079Z,8.70
2018-01-02T15:13:15.073Z,7.80
2018-01-02T15:15:43.168Z,8.00
2018-01-02T15:18:11.012Z,6.40
2018-01-02T15:20:38.882Z,7.30
2018-01-02T15:23:15.477Z,7.60
2018-01-02T15:25:45.284Z,9.63
2018-01-02T15:28:13.266Z,9.90
2018-01-02T15:30:41.181Z,7.57
2018-01-02T15:33:09.077Z,7.77
2018-01-02T15:35:36.985Z,7.97
2018-01-02T15:38:05.635Z,7.00
2018-01-02T15:40:33.557Z,8.73
2018-01-02T15:43:01.480Z,8.20
2018-01-02T15:45:29.596Z,9.77
2018-01-02T15:47:57.583Z,5.77
2018-01-02T15:50:25.452Z,5.80
2018-01-02T15:52:53.357Z,5.20
2018-01-02T15:55:21.222Z,6.50
2018-01-02T15:57:49.200Z,9.10
2018-01-02T16:00:17.083Z,12.67
2018-01-02T16:02:44.970Z,9.50
2018-01-02T16:05:12.852Z,8.80
2018-01-02T16:07:40.834Z,15.20
2018-01-02T16:10:08.684Z,10.50
2018-01-02T16:12:36.657Z,10.23
2018-01-02T16:15:04.573Z,9.93
2018-01-02T16:17:32.495Z,10.80
2018-01-02T16:20:00.435Z,10.40
2018-01-02T16:22:28.532Z,10.73
2018-01-02T16:24:56.501Z,15.93
2018-01-02T16:27:24.462Z,22.33
2018-01-02T16:29:52.351Z,16.47
2018-01-02T16:32:20.215Z,12.77
2018-01-02T16:34:48.108Z,10.57
2018-01-02T16:37:16.021Z,11.30
2018-01-02T16:42:18.480Z,10.80
2018-01-02T16:44:46.429Z,9.83
2018-01-02T16:47:14.478Z,9.70
2018-01-02T16:49:42.459Z,9.87
2018-01-02T16:52:10.378Z,16.17
2018-01-02T16:54:38.274Z,11.63
2018-01-02T16:57:06.178Z,10.37
2018-01-02T16:59:34.210Z,8.73
2018-01-02T17:02:03.088Z,12.00
2018-01-02T17:04:31.074Z,12.10
2018-01-02T17:06:58.979Z,10.87
2018-01-02T17:09:26.985Z,8.10
2018-01-02T17:11:54.896Z,8.10
2018-01-02T17:14:22.870Z,10.80
2018-01-02T17:16:50.848Z,9.77
2018-01-02T17:19:19.362Z,10.17
2018-01-02T17:21:47.441Z,8.10
2018-01-02T17:24:15.342Z,8.20
2018-01-02T17:26:43.307Z,9.33
2018-01-02T17:29:11.156Z,7.77
2018-01-02T17:31:39.012Z,9.60
2018-01-02T17:34:08.137Z,16.30
2018-01-02T17:36:36.695Z,10.50
2018-01-02T17:39:04.603Z,17.43
2018-01-02T17:41:32.524Z,11.40
2018-01-02T17:44:00.473Z,6.77
2018-01-02T17:46:28.349Z,10.90
2018-01-02T17:48:56.367Z,8.80
2018-01-02T17:51:28.158Z,10.27
2018-01-02T17:53:56.411Z,18.40
2018-01-02T17:56:24.367Z,8.90
2018-01-02T17:58:52.240Z,9.10
2018-01-02T18:01:20.117Z,7.40
2018-01-02T18:03:48.108Z,10.47
2018-01-02T18:06:15.996Z,15.07
2018-01-02T18:08:50.045Z,9.50
2018-01-02T18:13:50.992Z,8.10
2018-01-02T18:16:18.929Z,9.93
2018-01-02T18:18:46.867Z,11.97
2018-01-02T18:21:15.917Z,10.60
2018-01-02T18:23:43.859Z,10.53
2018-01-02T18:26:12.060Z,16.33
2018-01-02T18:28:40.024Z,8.40
2018-01-02T18:31:08.449Z,10.10
2018-01-02T18:33:37.496Z,13.50
2018-01-02T18:36:05.553Z,9.43
2018-01-02T18:38:33.660Z,13.10
2018-01-02T18:41:01.680Z,8.23
2018-01-02T18:43:29.884Z,9.07
2018-01-02T18:45:57.785Z,13.20
2018-01-02T18:48:25.802Z,8.87
2018-01-02T18:50:53.838Z,11.20
2018-01-02T18:53:21.789Z,17.23
2018-01-02T18:55:49.969Z,14.37
2018-01-02T18:58:17.945Z,12.43
2018-01-02T19:00:45.861Z,11.00
2018-01-02T19:03:13.706Z,13.47
2018-01-02T19:05:41.624Z,10.30
2018-01-02T19:08:09.490Z,8.90
2018-01-02T19:10:37.356Z,8.10
2018-01-02T19:13:05.319Z,8.23
2018-01-02T19:15:33.258Z,10.53
2018-01-02T19:18:01.360Z,12.17
2018-01-02T19:20:29.234Z,13.10
2018-01-02T19:22:57.667Z,10.30
2018-01-02T19:25:25.511Z,8.93
2018-01-02T19:27:53.535Z,9.60
2018-01-02T19:30:21.559Z,8.53
2018-01-02T19:32:49.453Z,8.90
2018-01-02T19:35:17.352Z,11.03
2018-01-02T19:37:45.199Z,8.57
2018-01-02T19:40:13.124Z,9.13
2018-01-02T19:42:41.011Z,12.73
2018-01-02T19:45:08.915Z,8.40
2018-01-02T19:47:36.843Z,8.87
2018-01-02T19:50:04.794Z,10.20
2018-01-02T19:52:32.791Z,9.50
2018-01-02T19:55:00.860Z,7.90
2018-01-02T19:57:28.743Z,7.57
2018-01-02T19:59:56.704Z,8.93
2018-01-02T20:02:24.576Z,8.80
2018-01-02T20:04:52.480Z,7.10
2018-01-02T20:07:20.346Z,8.40
2018-01-02T20:09:48.276Z,9.70
2018-01-02T20:12:16.249Z,8.37
2018-01-02T20:14:44.153Z,9.23
2018-01-02T20:17:13.058Z,11.70
2018-01-02T20:19:41.040Z,6.73
2018-01-02T20:22:09.009Z,7.70
2018-01-02T20:24:37.007Z,9.30
2018-01-02T20:27:04.897Z,7.70
2018-01-02T20:29:33.883Z,10.33
2018-01-02T20:32:02.296Z,8.40
2018-01-02T20:34:30.321Z,10.20
2018-01-02T20:36:58.248Z,8.70
2018-01-02T20:42:12.521Z,8.70
2018-01-02T20:44:40.558Z,8.40
2018-01-02T20:47:08.455Z,7.57
2018-01-02T20:49:36.363Z,7.80
2018-01-02T20:52:04.272Z,8.60
2018-01-02T20:54:32.131Z,8.30
2018-01-02T20:57:00.029Z,7.20
2018-01-02T20:59:27.880Z,7.20
2018-01-02T21:01:55.815Z,8.30
2018-01-02T21:04:23.736Z,7.40
2018-01-02T21:06:51.595Z,8.73
2018-01-02T21:09:19.507Z,7.57
2018-01-02T21:11:47.412Z,7.97
2018-01-02T21:14:15.357Z,6.90
2018-01-02T21:16:43.256Z,7.50
2018-01-02T21:19:11.832Z,7.97
2018-01-02T21:21:39.698Z,10.13
2018-01-02T21:24:07.555Z,10.03
2018-01-02T21:26:35.521Z,9.23
2018-01-02T21:29:03.379Z,9.00
2018-01-02T21:31:31.292Z,9.00
2018-01-02T21:33:59.152Z,10.00
2018-01-02T21:36:27.039Z,9.20
2018-01-02T21:38:54.920Z,10.90
2018-01-02T21:41:22.869Z,9.00
2018-01-02T21:43:50.744Z,9.17
2018-01-02T21:46:18.613Z,9.33
2018-01-02T21:48:46.496Z,9.37
2018-01-02T21:51:14.356Z,9.30
2018-01-02T21:53:42.199Z,8.43
2018-01-02T21:56:10.402Z,9.60
2018-01-02T21:58:38.271Z,9.20
2018-01-02T22:01:06.105Z,9.80
2018-01-02T22:03:33.996Z,10.00
2018-01-02T22:06:01.881Z,9.03
2018-01-02T22:08:29.748Z,10.20
2018-01-02T22:10:57.620Z,8.73
2018-01-02T22:13:25.459Z,9.30
2018-01-02T22:15:53.399Z,9.50
2018-01-02T22:18:21.281Z,10.30
2018-01-02T22:20:49.183Z,9.53
2018-01-02T22:23:17.057Z,9.33
2018-01-02T22:25:44.966Z,9.53
2018-01-02T22:28:12.812Z,9.30
2018-01-02T22:30:40.645Z,10.20
2018-01-02T22:33:08.549Z,10.60
2018-01-02T22:35:36.429Z,10.50
2018-01-02T22:38:04.327Z,10.43
2018-01-02T22:40:32.256Z,10.60
2018-01-02T22:43:00.129Z,10.60
2018-01-02T22:45:28.029Z,10.03
2018-01-02T22:47:55.924Z,11.10
2018-01-02T22:50:23.775Z,11.40
2018-01-02T22:52:51.625Z,11.23
2018-01-02T22:55:19.513Z,11.50
2018-01-02T22:57:47.346Z,10.50
2018-01-02T23:00:15.196Z,12.10
2018-01-02T23:02:43.094Z,11.30
2018-01-02T23:05:10.960Z,11.10
2018-01-02T23:07:38.826Z,10.47
2018-01-02T23:10:06.775Z,9.90
2018-01-02T23:12:34.644Z,11.40
2018-01-02T23:15:02.673Z,10.90
2018-01-02T23:17:30.673Z,9.37
2018-01-02T23:19:58.512Z,11.70
2018-01-02T23:22:26.358Z,10.83
2018-01-02T23:24:54.235Z,10.30
2018-01-02T23:27:22.079Z,11.10
2018-01-02T23:29:49.967Z,12.90
2018-01-02T23:32:17.876Z,12.00
2018-01-02T23:34:45.744Z,10.23
2018-01-02T23:37:13.690Z,10.90
2018-01-02T23:39:41.984Z,11.00
2018-01-02T23:42:10.305Z,11.67
2018-01-02T23:44:38.697Z,11.60
2018-01-02T23:47:06.616Z,11.10
2018-01-02T23:49:34.480Z,11.00
2018-01-02T23:52:02.397Z,10.20
2018-01-02T23:54:30.352Z,11.00
2018-01-02T23:56:58.249Z,11.47
2018-01-02T23:59:26.103Z,10.60
